createdAt,value
2023-02-07T00:03:13.592Z,3.88
2023-02-07T00:08:16.465Z,3.05
2023-02-07T00:13:19.005Z,2.63
2023-02-07T00:18:21.476Z,2.95
2023-02-07T00:23:23.921Z,3.42
2023-02-07T00:28:26.708Z,3.72
2023-02-07T00:33:29.236Z,3.00
2023-02-07T00:38:32.084Z,1.15
2023-02-07T00:43:35.007Z,3.47
2023-02-07T00:48:39.636Z,3.72
2023-02-07T00:53:45.179Z,2.17
2023-02-07T00:58:49.512Z,2.13
2023-02-07T01:03:53.702Z,3.45
2023-02-07T01:09:00.644Z,1.88
2023-02-07T01:14:05.948Z,1.58
2023-02-07T01:19:10.768Z,1.88
2023-02-07T01:24:13.429Z,1.48
2023-02-07T01:29:16.362Z,1.23
2023-02-07T01:34:18.861Z,2.65
2023-02-07T01:39:22.592Z,2.20
2023-02-07T01:44:24.979Z,1.23
2023-02-07T01:49:31.921Z,1.90
2023-02-07T01:54:36.884Z,3.08
2023-02-07T01:59:44.182Z,2.10
2023-02-07T02:04:46.869Z,1.23
2023-02-07T02:09:49.320Z,1.75
2023-02-07T02:15:10.368Z,1.17
2023-02-07T02:20:54.433Z,1.98
2023-02-07T02:25:58.210Z,1.05
2023-02-07T02:31:00.654Z,2.20
2023-02-07T02:36:05.679Z,1.88
2023-02-07T02:41:35.676Z,1.75
2023-02-07T02:46:41.762Z,1.75
2023-02-07T02:51:44.755Z,2.50
2023-02-07T02:56:48.232Z,2.10
2023-02-07T03:02:26.380Z,1.98
2023-02-07T03:08:06.284Z,1.88
2023-02-07T03:13:30.430Z,1.42
2023-02-07T03:18:53.981Z,2.28
2023-02-07T03:23:59.624Z,1.88
2023-02-07T03:29:06.600Z,1.98
2023-02-07T03:34:16.783Z,1.88
2023-02-07T03:39:19.514Z,2.85
2023-02-07T03:44:25.694Z,2.25
2023-02-07T03:49:28.202Z,2.08
2023-02-07T03:54:30.661Z,2.55
2023-02-07T03:59:33.244Z,2.22
2023-02-07T04:04:36.492Z,2.03
2023-02-07T04:09:38.815Z,1.75
2023-02-07T04:14:41.292Z,4.07
2023-02-07T04:19:43.731Z,3.10
2023-02-07T04:24:46.775Z,2.22
2023-02-07T04:29:49.241Z,2.88
2023-02-07T04:34:51.576Z,3.25
2023-02-07T04:39:54.024Z,2.78
2023-02-07T04:44:56.462Z,1.85
2023-02-07T04:49:58.890Z,2.25
2023-02-07T04:55:01.333Z,2.75
2023-02-07T05:00:04.895Z,1.65
2023-02-07T05:05:08.045Z,2.15
2023-02-07T05:10:10.673Z,2.25
2023-02-07T05:15:13.051Z,2.72
2023-02-07T05:20:15.622Z,3.03
2023-02-07T05:25:18.475Z,2.63
2023-02-07T05:30:21.469Z,3.05
2023-02-07T05:35:23.958Z,2.67
2023-02-07T05:40:26.409Z,3.00
2023-02-07T05:45:29.156Z,3.08
2023-02-07T05:50:32.044Z,1.35
2023-02-07T05:55:41.590Z,2.03
2023-02-07T06:00:44.244Z,2.28
2023-02-07T06:05:46.652Z,1.23
2023-02-07T06:10:49.840Z,2.33
2023-02-07T06:15:53.349Z,3.22
2023-02-07T06:20:56.423Z,2.05
2023-02-07T06:25:58.829Z,3.15
2023-02-07T06:31:01.436Z,2.65
2023-02-07T06:36:04.293Z,5.10
2023-02-07T06:41:11.226Z,13.55
2023-02-07T06:46:13.962Z,2.50
2023-02-07T06:51:16.517Z,6.55
2023-02-07T06:56:19.079Z,3.10
2023-02-07T07:01:22.660Z,14.88
2023-02-07T07:06:25.194Z,3.53
2023-02-07T07:11:27.646Z,12.85
2023-02-07T07:16:30.138Z,2.85
2023-02-07T07:21:32.941Z,3.08
2023-02-07T07:26:48.437Z,2.50
2023-02-07T07:31:52.154Z,8.13
2023-02-07T07:36:57.008Z,2.88
2023-02-07T07:41:59.901Z,2.28
2023-02-07T07:47:20.982Z,3.35
2023-02-07T07:52:23.563Z,2.47
2023-02-07T07:57:28.478Z,3.08
2023-02-07T08:02:30.928Z,4.35
2023-02-07T08:07:33.495Z,2.97
2023-02-07T08:12:36.075Z,1.88
2023-02-07T08:17:38.612Z,2.15
2023-02-07T08:22:41.185Z,2.00
2023-02-07T08:27:43.847Z,3.25
2023-02-07T08:32:47.400Z,2.20
2023-02-07T08:37:50.521Z,2.03
2023-02-07T08:42:53.181Z,2.60
2023-02-07T08:47:55.654Z,2.45
2023-02-07T08:52:58.312Z,2.20
2023-02-07T08:58:00.749Z,2.92
2023-02-07T09:03:04.515Z,2.25
2023-02-07T09:08:07.128Z,2.20
2023-02-07T09:13:09.700Z,2.78
2023-02-07T09:18:12.209Z,2.40
2023-02-07T09:23:20.576Z,1.55
2023-02-07T09:28:23.254Z,2.03
2023-02-07T09:33:26.278Z,1.40
2023-02-07T09:38:29.024Z,1.77
2023-02-07T09:44:00.317Z,2.78
2023-02-07T09:49:37.870Z,2.45
2023-02-07T09:54:44.027Z,2.30
2023-02-07T09:59:50.914Z,2.03
2023-02-07T10:04:59.180Z,2.67
2023-02-07T10:10:01.786Z,2.03
2023-02-07T10:15:20.165Z,2.15
2023-02-07T10:20:40.653Z,2.08
2023-02-07T10:26:12.019Z,1.98
2023-02-07T10:31:17.782Z,2.42
2023-02-07T10:36:20.765Z,2.70
2023-02-07T10:41:31.190Z,2.90
2023-02-07T10:46:35.849Z,3.30
2023-02-07T10:51:44.516Z,2.30
2023-02-07T10:56:49.024Z,2.42
2023-02-07T11:01:54.579Z,2.45
2023-02-07T11:12:15.570Z,2.10
2023-02-07T11:17:22.059Z,2.83
2023-02-07T11:22:28.233Z,1.90
2023-02-07T11:27:41.307Z,2.08
2023-02-07T11:32:44.825Z,1.75
2023-02-07T11:37:49.512Z,1.50
2023-02-07T11:43:10.095Z,1.83
2023-02-07T11:48:31.225Z,1.88
2023-02-07T11:54:05.895Z,2.13
2023-02-07T11:59:18.595Z,2.30
2023-02-07T12:04:27.819Z,1.70
2023-02-07T12:09:40.092Z,1.40
2023-02-07T12:15:02.358Z,1.45
2023-02-07T12:20:29.334Z,2.60
2023-02-07T12:25:57.145Z,2.35
2023-02-07T12:31:06.574Z,2.00
2023-02-07T12:36:19.980Z,1.90
2023-02-07T12:41:41.383Z,2.53
2023-02-07T12:47:05.560Z,2.28
2023-02-07T12:52:46.262Z,3.13
2023-02-07T12:58:06.546Z,2.33
2023-02-07T13:03:33.291Z,2.58
2023-02-07T13:08:55.370Z,2.90
2023-02-07T13:14:09.553Z,4.35
2023-02-07T13:19:29.081Z,3.60
2023-02-07T13:24:33.384Z,2.95
2023-02-07T13:29:37.853Z,3.05
2023-02-07T13:34:46.624Z,3.40
2023-02-07T13:39:59.042Z,4.32
2023-02-07T13:45:21.524Z,5.45
2023-02-07T13:50:39.228Z,3.28
2023-02-07T13:55:43.746Z,4.72
2023-02-07T14:00:56.249Z,6.15
2023-02-07T14:11:44.491Z,3.42
2023-02-07T14:16:56.280Z,5.20
2023-02-07T14:22:20.913Z,6.55
2023-02-07T14:27:34.864Z,5.75
2023-02-07T14:33:04.202Z,5.80
2023-02-07T14:38:06.959Z,5.53
2023-02-07T14:43:12.220Z,5.32
2023-02-07T14:48:42.355Z,8.00
2023-02-07T14:53:46.831Z,5.20
2023-02-07T14:58:52.088Z,5.90
2023-02-07T15:04:06.086Z,6.90
2023-02-07T15:09:18.585Z,5.78
2023-02-07T15:14:33.516Z,5.97
2023-02-07T15:19:42.438Z,6.80
2023-02-07T15:24:51.408Z,4.78
2023-02-07T15:30:03.602Z,7.93
2023-02-07T15:35:17.510Z,7.30
2023-02-07T15:40:25.601Z,6.75
2023-02-07T15:45:32.660Z,6.93
2023-02-07T15:50:41.925Z,6.32
2023-02-07T15:55:50.883Z,6.25
2023-02-07T16:00:53.703Z,7.28
2023-02-07T16:06:32.926Z,7.60
2023-02-07T16:11:40.250Z,5.95
2023-02-07T16:16:56.081Z,4.85
2023-02-07T16:21:58.411Z,5.20
2023-02-07T16:27:00.935Z,9.02
2023-02-07T16:32:04.663Z,8.43
2023-02-07T16:37:07.992Z,5.38
2023-02-07T16:42:15.436Z,7.35
2023-02-07T16:47:18.854Z,4.25
2023-02-07T16:52:21.361Z,5.75
2023-02-07T16:57:23.836Z,5.20
2023-02-07T17:02:26.362Z,5.47
2023-02-07T17:07:29.269Z,5.45
2023-02-07T17:12:31.734Z,4.75
2023-02-07T17:17:34.117Z,4.93
2023-02-07T17:22:36.550Z,4.75
2023-02-07T17:27:39.066Z,5.85
2023-02-07T17:32:41.533Z,4.97
2023-02-07T17:37:44.388Z,5.05
2023-02-07T17:42:47.153Z,5.93
2023-02-07T17:47:49.786Z,6.32
2023-02-07T17:52:52.274Z,5.22
2023-02-07T17:57:54.883Z,6.65
2023-02-07T18:02:57.353Z,7.05
2023-02-07T18:08:00.181Z,7.13
2023-02-07T18:13:02.971Z,4.90
2023-02-07T18:18:05.716Z,9.13
2023-02-07T18:23:08.274Z,5.80
2023-02-07T18:28:10.843Z,9.05
2023-02-07T18:33:14.333Z,9.13
2023-02-07T18:38:16.805Z,7.93
2023-02-07T18:43:19.328Z,9.25
2023-02-07T18:48:21.761Z,7.75
2023-02-07T18:53:24.345Z,8.80
2023-02-07T18:58:26.712Z,5.95
2023-02-07T19:03:29.105Z,7.75
2023-02-07T19:08:31.642Z,7.30
2023-02-07T19:13:35.538Z,9.52
2023-02-07T19:18:37.937Z,7.72
2023-02-07T19:23:41.139Z,9.43
2023-02-07T19:28:43.627Z,7.93
2023-02-07T19:33:50.909Z,10.55
2023-02-07T19:38:54.649Z,10.90
2023-02-07T19:43:57.995Z,6.85
2023-02-07T19:49:00.543Z,10.05
2023-02-07T19:54:03.517Z,7.85
2023-02-07T19:59:07.243Z,7.20
2023-02-07T20:04:09.725Z,7.07
2023-02-07T20:09:12.226Z,8.07
2023-02-07T20:14:14.739Z,9.73
2023-02-07T20:19:17.383Z,8.80
2023-02-07T20:24:19.818Z,8.05
2023-02-07T20:29:23.358Z,7.70
2023-02-07T20:34:25.890Z,6.95
2023-02-07T20:39:30.912Z,8.95
2023-02-07T20:44:33.559Z,9.35
2023-02-07T20:49:35.992Z,8.98
2023-02-07T20:54:38.452Z,10.75
2023-02-07T20:59:40.994Z,8.23
2023-02-07T21:04:43.603Z,6.18
2023-02-07T21:09:46.049Z,8.73
2023-02-07T21:14:48.663Z,8.88
2023-02-07T21:19:51.161Z,6.90
2023-02-07T21:24:53.572Z,9.35
2023-02-07T21:29:56.049Z,7.07
2023-02-07T21:34:58.474Z,8.27
2023-02-07T21:40:00.969Z,9.20
2023-02-07T21:45:04.465Z,5.90
2023-02-07T21:50:07.144Z,7.65
2023-02-07T21:55:09.743Z,7.82
2023-02-07T22:00:13.509Z,6.65
2023-02-07T22:05:16.213Z,7.63
2023-02-07T22:10:18.845Z,7.13
2023-02-07T22:15:21.272Z,7.32
2023-02-07T22:20:23.780Z,8.88
2023-02-07T22:25:26.280Z,10.68
2023-02-07T22:30:28.701Z,8.80
2023-02-07T22:35:36.894Z,7.65
2023-02-07T22:40:41.432Z,11.25
2023-02-07T22:45:46.465Z,8.57
2023-02-07T22:50:49.048Z,8.75
2023-02-07T22:55:51.535Z,9.50
2023-02-07T23:00:54.019Z,10.65
2023-02-07T23:05:56.646Z,5.72
2023-02-07T23:10:59.095Z,7.93
2023-02-07T23:16:01.632Z,6.15
2023-02-07T23:21:08.846Z,7.43
2023-02-07T23:26:14.394Z,7.68
2023-02-07T23:31:18.397Z,7.40
2023-02-07T23:36:21.125Z,8.38
2023-02-07T23:41:23.700Z,9.38
2023-02-07T23:46:27.325Z,6.55
2023-02-07T23:51:29.819Z,12.75
2023-02-07T23:56:32.596Z,10.07
